Time;durP1;ratioP1;P1;durP2;ratioP2;P2;SDS_P1;SDS_P2;PMS_P1;PMS_P2;Temp;Humidity;BMP_temperature;BMP_pressure;BME280_temperature;BME280_humidity;BME280_pressure;Samples;Min_cycle;Max_cycle;Signal;HPM_P1;HPM_P2
2023/12/12 15:11:52;;;;;;;49.35;21.67;;;6.50;99.90;;;;;;5133978;27;20112;-49
2023/12/12 15:14:20;;;;;;;60.30;23.48;;;6.40;99.90;;;;;;5131067;27;20087;-54
2023/12/12 15:16:45;;;;;;;59.75;25.02;;;6.40;99.90;;;;;;5125200;28;20119;-48
2023/12/12 15:19:11;;;;;;;65.85;29.75;;;6.40;99.90;;;;;;5123540;28;20102;-48
2023/12/12 15:21:37;;;;;;;76.90;30.83;;;6.40;99.90;;;;;;5123502;28;20111;-53
2023/12/12 15:24:03;;;;;;;63.38;30.35;;;6.40;99.90;;;;;;5122706;28;20111;-51
2023/12/12 15:26:28;;;;;;;61.60;29.30;;;6.40;1.00;;;;;;5123011;28;20019;-45
2023/12/12 15:28:55;;;;;;;43.42;21.70;;;6.40;1.00;;;;;;5112362;28;20499;-50
2023/12/12 15:31:21;;;;;;;44.67;23.38;;;6.40;1.00;;;;;;5103725;28;20677;-51
2023/12/12 15:33:47;;;;;;;45.50;20.80;;;6.40;1.00;;;;;;5104911;28;20032;-49
2023/12/12 15:36:13;;;;;;;51.17;22.13;;;6.40;1.00;;;;;;5103475;28;20441;-55
2023/12/12 15:38:39;;;;;;;52.25;23.33;;;6.40;1.00;;;;;;5103976;28;20469;-49
2023/12/12 15:41:04;;;;;;;45.50;21.05;;;6.40;32.70;;;;;;5104150;28;20020;-50
2023/12/12 15:43:30;;;;;;;47.72;22.80;;;6.40;82.10;;;;;;5107415;27;20022;-49
2023/12/12 15:45:56;;;;;;;47.92;20.60;;;6.40;99.90;;;;;;5111362;28;20028;-48
2023/12/12 15:48:22;;;;;;;44.95;21.42;;;6.40;99.90;;;;;;5104082;28;20382;-56
2023/12/12 15:50:49;;;;;;;39.10;20.23;;;6.40;99.90;;;;;;5104195;28;20506;-52
2023/12/12 15:53:14;;;;;;;43.85;20.85;;;6.40;99.90;;;;;;5103212;28;20446;-49
2023/12/12 15:55:40;;;;;;;44.08;20.30;;;6.40;99.90;;;;;;5103910;28;20027;-52
2023/12/12 15:58:06;;;;;;;45.72;20.23;;;6.40;99.90;;;;;;5102848;28;20031;-48
2023/12/12 16:00:32;;;;;;;41.70;19.70;;;6.40;99.90;;;;;;5102018;28;20031;-50
2023/12/12 16:02:58;;;;;;;45.35;20.25;;;6.40;99.90;;;;;;5103088;28;20028;-49
2023/12/12 16:05:24;;;;;;;39.55;17.73;;;6.40;99.90;;;;;;5102744;28;20036;-51
2023/12/12 16:07:49;;;;;;;40.25;18.25;;;6.40;99.90;;;;;;5102712;28;20028;-53
2023/12/12 16:10:15;;;;;;;41.05;17.75;;;6.40;99.90;;;;;;5102185;28;20460;-49
2023/12/12 16:12:41;;;;;;;33.83;15.40;;;6.40;99.90;;;;;;5101871;28;20031;-52
2023/12/12 16:15:08;;;;;;;31.70;15.77;;;6.40;99.90;;;;;;5102241;28;20498;-53
2023/12/12 16:17:34;;;;;;;35.13;14.70;;;6.40;99.90;;;;;;5102671;28;20039;-49
2023/12/12 16:20:05;;;;;;;38.70;17.20;;;6.40;1.00;;;;;;5102660;28;20110;-51
2023/12/12 16:22:31;;;;;;;45.22;18.88;;;6.30;1.00;;;;;;5092240;28;20028;-49
2023/12/12 16:24:57;;;;;;;39.97;17.90;;;6.30;1.00;;;;;;5089159;28;20034;-51
2023/12/12 16:27:23;;;;;;;41.42;18.88;;;6.30;1.00;;;;;;5089321;28;20115;-52
2023/12/12 16:29:49;;;;;;;44.90;18.98;;;6.30;30.50;;;;;;5107621;28;20132;-49
2023/12/12 16:32:15;;;;;;;36.85;16.98;;;6.30;25.00;;;;;;5109212;28;20127;-49
2023/12/12 16:34:41;;;;;;;50.38;19.45;;;6.30;1.00;;;;;;5108650;28;20112;-49
2023/12/12 16:37:07;;;;;;;46.88;19.80;;;6.30;28.10;;;;;;5108684;28;20027;-53
2023/12/12 16:39:33;;;;;;;49.10;21.95;;;6.30;4.90;;;;;;5108900;28;20035;-50
2023/12/12 16:41:58;;;;;;;54.00;23.52;;;6.30;24.50;;;;;;5108226;28;20046;-50
2023/12/12 16:44:24;;;;;;;60.13;26.13;;;6.20;99.90;;;;;;5106190;28;20087;-53
2023/12/12 16:46:50;;;;;;;56.45;23.98;;;6.20;99.90;;;;;;5107112;28;20076;-52
2023/12/12 16:49:17;;;;;;;53.05;23.95;;;6.20;96.40;;;;;;5107956;28;20020;-53
2023/12/12 16:51:42;;;;;;;;;;;6.20;99.90;;;;;;5108715;28;20050;-51
2023/12/12 16:54:08;;;;;;;43.13;20.73;;;6.20;99.90;;;;;;5106561;28;20312;-52
2023/12/12 16:56:34;;;;;;;47.50;21.30;;;6.20;99.90;;;;;;5106251;28;20020;-49
2023/12/12 16:59:00;;;;;;;52.33;23.02;;;6.20;99.90;;;;;;5107762;28;20114;-51
2023/12/12 17:01:26;;;;;;;57.55;22.88;;;6.20;99.90;;;;;;5106016;28;20020;-51
2023/12/12 17:03:52;;;;;;;52.05;25.63;;;6.20;99.90;;;;;;5105733;28;20407;-52
2023/12/12 17:06:18;;;;;;;54.97;25.15;;;6.20;99.90;;;;;;5106137;28;20089;-52
2023/12/12 17:08:47;;;;;;;58.97;25.35;;;6.20;87.70;;;;;;5106549;28;20035;-53
2023/12/12 17:11:14;;;;;;;55.92;22.63;;;6.20;99.90;;;;;;5103192;28;20059;-52
2023/12/12 17:13:40;;;;;;;46.33;21.48;;;6.20;99.90;;;;;;5087189;28;20105;-52
2023/12/12 17:16:06;;;;;;;44.38;20.23;;;6.20;99.90;;;;;;5087566;28;20471;-49
2023/12/12 17:18:32;;;;;;;40.35;19.17;;;6.10;99.90;;;;;;5087491;28;20379;-49
2023/12/12 17:20:59;;;;;;;36.00;18.85;;;6.10;99.90;;;;;;5087540;28;20065;-50
2023/12/12 17:23:25;;;;;;;38.70;16.48;;;6.10;99.90;;;;;;5099368;28;20419;-49
2023/12/12 17:25:51;;;;;;;35.70;17.35;;;6.10;99.90;;;;;;5107052;28;20023;-52
2023/12/12 17:28:18;;;;;;;34.17;15.32;;;6.10;99.90;;;;;;5109814;28;20034;-57
2023/12/12 17:30:44;;;;;;;40.00;16.67;;;6.10;99.90;;;;;;5114246;28;20083;-48
2023/12/12 17:33:10;;;;;;;37.25;15.13;;;6.10;99.90;;;;;;5114523;28;20049;-49
2023/12/12 17:35:36;;;;;;;44.42;17.60;;;6.10;99.90;;;;;;5113657;28;20032;-53
2023/12/12 17:38:02;;;;;;;41.13;20.05;;;6.00;99.90;;;;;;5114867;28;20477;-51
2023/12/12 17:40:29;;;;;;;50.40;21.70;;;6.00;1.00;;;;;;5092751;28;20546;-54
2023/12/12 17:42:54;;;;;;;52.60;21.40;;;6.00;10.20;;;;;;5106261;28;20509;-46
2023/12/12 17:45:20;;;;;;;46.28;21.02;;;6.00;94.40;;;;;;5106500;28;20032;-53
2023/12/12 17:47:46;;;;;;;52.90;24.08;;;6.00;89.30;;;;;;5106368;28;20030;-48
2023/12/12 17:50:14;;;;;;;53.60;21.88;;;5.90;99.90;;;;;;5105593;28;20047;-48
2023/12/12 17:52:43;;;;;;;46.38;18.88;;;5.90;1.00;;;;;;5086803;28;20433;-48
2023/12/12 17:55:09;;;;;;;40.67;18.13;;;5.90;43.00;;;;;;5105618;28;20046;-49
2023/12/12 17:57:35;;;;;;;46.42;17.60;;;5.90;1.00;;;;;;5107079;28;20020;-52
2023/12/12 18:00:03;;;;;;;37.77;16.87;;;5.90;1.00;;;;;;5107769;28;20073;-50
2023/12/12 18:02:28;;;;;;;49.22;21.45;;;5.90;1.00;;;;;;5122526;27;20039;-53
2023/12/12 18:04:54;;;;;;;42.60;18.48;;;5.90;1.00;;;;;;5128799;27;20401;-53
2023/12/12 18:07:20;;;;;;;39.95;19.23;;;5.90;1.00;;;;;;5090934;28;20502;-48
2023/12/12 18:09:45;;;;;;;48.58;21.92;;;5.90;1.00;;;;;;5090629;28;20685;-52
2023/12/12 18:12:11;;;;;;;41.53;21.95;;;5.90;1.00;;;;;;5074097;28;20100;-53
2023/12/12 18:14:36;;;;;;;58.95;27.58;;;5.90;1.00;;;;;;5092209;28;20039;-49
2023/12/12 18:17:03;;;;;;;44.17;20.67;;;5.90;1.00;;;;;;5093044;28;20094;-52
2023/12/12 18:19:32;;;;;;;51.78;22.63;;;5.90;1.00;;;;;;5091940;28;20032;-50
2023/12/12 18:21:58;;;;;;;49.38;22.73;;;5.80;1.00;;;;;;5091891;28;20046;-48
2023/12/12 18:24:24;;;;;;;53.28;21.35;;;5.80;1.00;;;;;;5092453;28;20027;-53
2023/12/12 18:26:51;;;;;;;44.97;18.67;;;5.70;1.00;;;;;;5094458;28;20114;-50
2023/12/12 18:29:18;;;;;;;42.95;17.48;;;5.80;1.00;;;;;;5093901;28;20035;-52
2023/12/12 18:31:45;;;;;;;33.97;15.30;;;5.70;1.00;;;;;;5092531;28;20475;-51
2023/12/12 18:34:11;;;;;;;33.63;14.30;;;5.70;1.00;;;;;;5092535;28;20031;-48
2023/12/12 18:36:37;;;;;;;33.17;13.90;;;5.70;1.00;;;;;;5091441;28;20111;-48
2023/12/12 18:39:05;;;;;;;39.05;16.42;;;5.70;99.90;;;;;;5087459;28;20036;-53
2023/12/12 18:41:33;;;;;;;33.72;16.15;;;5.70;1.00;;;;;;5087140;28;20046;-55
2023/12/12 18:43:58;;;;;;;36.15;16.10;;;5.60;1.00;;;;;;5100141;28;20206;-51
2023/12/12 18:46:24;;;;;;;33.25;15.00;;;5.60;1.00;;;;;;5105443;28;20130;-48
2023/12/12 18:48:50;;;;;;;47.38;15.77;;;5.60;1.00;;;;;;5105496;28;20028;-50
2023/12/12 18:51:15;;;;;;;32.33;14.15;;;5.50;1.00;;;;;;5105866;28;20035;-53
2023/12/12 18:53:41;;;;;;;42.40;15.45;;;5.50;1.00;;;;;;5105658;28;20024;-46
2023/12/12 18:56:09;;;;;;;54.03;20.20;;;5.50;1.00;;;;;;5105697;28;20016;-50
2023/12/12 18:58:35;;;;;;;51.05;21.05;;;5.40;1.00;;;;;;5105729;28;20031;-50
2023/12/12 19:01:02;;;;;;;55.75;23.90;;;5.50;4.50;;;;;;5105945;28;20028;-50
2023/12/12 19:03:28;;;;;;;54.00;24.10;;;5.50;1.00;;;;;;5105734;28;20117;-51
2023/12/12 19:05:53;;;;;;;58.90;25.55;;;5.40;99.90;;;;;;5105577;28;20072;-51
2023/12/12 19:08:19;;;;;;;57.28;27.33;;;5.40;99.90;;;;;;5105637;28;20105;-53
2023/12/12 19:10:46;;;;;;;56.60;25.95;;;5.40;99.90;;;;;;5105000;28;20052;-48
2023/12/12 19:13:13;;;;;;;60.47;28.33;;;5.40;99.90;;;;;;5105458;28;20072;-49
2023/12/12 19:15:39;;;;;;;59.58;25.65;;;5.30;99.90;;;;;;5105907;28;20024;-50
2023/12/12 19:18:05;;;;;;;60.75;27.98;;;5.30;1.00;;;;;;5105300;28;20045;-49
2023/12/12 19:20:30;;;;;;;67.10;28.48;;;5.30;99.90;;;;;;5087328;28;20020;-54
2023/12/12 19:22:56;;;;;;;65.18;29.05;;;5.30;99.90;;;;;;5106251;28;20015;-49
2023/12/12 19:25:22;;;;;;;60.65;26.88;;;5.20;99.90;;;;;;5105382;28;20027;-55
2023/12/12 19:27:48;;;;;;;60.38;27.30;;;5.20;99.90;;;;;;5105605;28;20019;-51
2023/12/12 19:30:13;;;;;;;57.53;28.17;;;5.30;99.90;;;;;;5105897;28;20118;-51
2023/12/12 19:32:40;;;;;;;56.20;24.95;;;5.20;45.80;;;;;;5105139;28;20973;-53
2023/12/12 19:35:07;;;;;;;56.25;26.30;;;5.20;1.00;;;;;;5105359;28;20054;-52
2023/12/12 19:37:33;;;;;;;56.95;23.33;;;5.20;1.00;;;;;;5105138;28;20395;-51
2023/12/12 19:39:59;;;;;;;42.90;21.83;;;5.20;99.90;;;;;;5105118;28;20054;-52
2023/12/12 19:42:25;;;;;;;50.38;25.85;;;5.20;99.90;;;;;;5105549;28;20055;-55
2023/12/12 19:44:51;;;;;;;50.80;26.15;;;5.20;89.40;;;;;;5104892;28;20065;-49
2023/12/12 19:47:16;;;;;;;41.40;23.05;;;5.20;1.00;;;;;;5105276;28;20362;-49
2023/12/12 19:49:43;;;;;;;46.83;22.88;;;5.20;1.00;;;;;;5104583;28;20020;-53
2023/12/12 19:52:09;;;;;;;37.42;20.83;;;5.20;99.90;;;;;;5105448;28;20037;-50
2023/12/12 19:54:35;;;;;;;42.40;20.92;;;5.20;99.90;;;;;;5104679;28;20482;-54
2023/12/12 19:57:02;;;;;;;41.38;20.00;;;5.10;99.90;;;;;;5106261;28;20039;-55
2023/12/12 19:59:28;;;;;;;37.10;19.10;;;5.00;99.90;;;;;;5108620;28;20019;-53
2023/12/12 20:01:54;;;;;;;44.50;20.98;;;5.00;99.90;;;;;;5108517;28;20038;-50
2023/12/12 20:04:20;;;;;;;45.65;22.38;;;4.90;99.90;;;;;;5108638;28;20032;-51
2023/12/12 20:06:46;;;;;;;45.10;20.85;;;4.90;99.90;;;;;;5108495;28;20374;-50
2023/12/12 20:09:12;;;;;;;43.85;20.13;;;4.90;99.90;;;;;;5108793;28;20399;-51
2023/12/12 20:11:40;;;;;;;45.60;23.30;;;4.80;1.00;;;;;;5108357;28;20512;-50
2023/12/12 20:14:06;;;;;;;49.83;23.85;;;4.80;1.00;;;;;;5098404;28;20027;-50
2023/12/12 20:16:31;;;;;;;49.72;25.55;;;4.80;50.60;;;;;;5108148;28;20488;-51
2023/12/12 20:18:58;;;;;;;40.50;22.85;;;4.70;99.90;;;;;;5108568;28;20015;-50
2023/12/12 20:21:27;;;;;;;46.15;22.30;;;4.80;99.90;;;;;;5108312;28;20142;-52
2023/12/12 20:23:53;;;;;;;40.80;20.50;;;4.80;99.90;;;;;;5108674;28;20122;-49
2023/12/12 20:26:18;;;;;;;46.38;20.23;;;4.80;99.90;;;;;;5108908;28;20111;-53
2023/12/12 20:28:44;;;;;;;43.33;19.40;;;4.80;99.90;;;;;;5108232;28;20446;-50
2023/12/12 20:31:11;;;;;;;39.53;19.80;;;4.90;1.00;;;;;;5108108;28;20505;-48
2023/12/12 20:33:36;;;;;;;46.13;21.10;;;4.90;1.00;;;;;;5108398;28;20544;-52
2023/12/12 20:36:02;;;;;;;51.13;24.85;;;5.00;99.90;;;;;;5108216;28;20024;-54
2023/12/12 20:38:30;;;;;;;58.40;28.83;;;5.00;99.90;;;;;;5107748;28;20103;-56
2023/12/12 20:40:57;;;;;;;51.88;26.33;;;5.00;99.90;;;;;;5108098;28;20032;-51
2023/12/12 20:43:22;;;;;;;49.83;26.60;;;5.10;31.00;;;;;;5108096;28;20093;-48
2023/12/12 20:45:48;;;;;;;40.90;23.05;;;5.10;1.00;;;;;;5107858;28;20752;-56
2023/12/12 20:48:14;;;;;;;47.45;24.80;;;5.00;1.00;;;;;;5108400;28;20023;-52
2023/12/12 20:50:42;;;;;;;39.33;20.15;;;5.00;1.00;;;;;;5107846;28;20047;-52
2023/12/12 20:53:09;;;;;;;38.13;19.00;;;5.00;1.00;;;;;;5108062;28;20128;-54
2023/12/12 20:55:35;;;;;;;36.37;17.53;;;5.00;1.00;;;;;;5107088;28;20028;-47
2023/12/12 20:58:01;;;;;;;36.72;16.83;;;4.90;1.00;;;;;;5109565;28;20035;-55
2023/12/12 21:00:29;;;;;;;36.08;16.77;;;4.90;99.90;;;;;;5109042;28;20049;-51
2023/12/12 21:02:55;;;;;;;33.42;17.13;;;4.90;99.90;;;;;;5108739;28;20031;-48
2023/12/12 21:05:21;;;;;;;40.05;17.67;;;4.90;1.00;;;;;;5109087;28;20115;-52
2023/12/12 21:07:47;;;;;;;33.90;15.70;;;5.00;99.90;;;;;;5107975;28;20119;-49
2023/12/12 21:10:13;;;;;;;31.67;17.55;;;4.90;99.90;;;;;;5107133;28;20398;-50
2023/12/12 21:12:38;;;;;;;31.67;14.65;;;4.90;99.90;;;;;;5107512;28;20024;-54
2023/12/12 21:15:05;;;;;;;36.45;15.30;;;4.90;99.90;;;;;;5107764;28;21213;-49
2023/12/12 21:17:31;;;;;;;34.97;15.32;;;4.90;99.90;;;;;;5107459;28;20027;-53
2023/12/12 21:19:57;;;;;;;27.95;13.23;;;4.90;99.90;;;;;;5107005;28;20652;-46
2023/12/12 21:22:22;;;;;;;31.77;13.25;;;4.90;99.90;;;;;;5107346;28;20020;-53
2023/12/12 21:24:48;;;;;;;32.67;14.32;;;4.90;99.90;;;;;;5106600;28;20105;-51
2023/12/12 21:27:14;;;;;;;33.90;14.75;;;4.90;99.90;;;;;;5107234;28;20024;-55
2023/12/12 21:29:39;;;;;;;41.83;15.13;;;4.80;99.90;;;;;;5106965;28;20051;-49
2023/12/12 21:32:06;;;;;;;35.67;15.52;;;4.80;99.90;;;;;;5107221;28;20019;-52
2023/12/12 21:34:31;;;;;;;33.42;16.00;;;4.70;99.90;;;;;;5106804;28;20028;-52
2023/12/12 21:36:58;;;;;;;27.10;13.38;;;4.70;99.90;;;;;;5106977;28;20031;-51
2023/12/12 21:39:24;;;;;;;33.17;14.40;;;4.70;99.90;;;;;;5107386;28;20031;-51
2023/12/12 21:41:50;;;;;;;31.05;15.52;;;4.70;99.90;;;;;;5106546;28;20038;-48
2023/12/12 21:44:15;;;;;;;33.83;14.95;;;4.60;99.90;;;;;;5106840;28;20031;-48
2023/12/12 21:46:41;;;;;;;34.42;15.00;;;4.60;99.90;;;;;;5106849;28;20047;-54
2023/12/12 21:49:07;;;;;;;43.47;21.50;;;4.60;1.00;;;;;;5107066;28;20058;-50
2023/12/12 21:51:33;;;;;;;39.40;16.88;;;4.50;1.00;;;;;;5106896;28;20055;-50
2023/12/12 21:53:58;;;;;;;37.75;16.08;;;4.50;1.00;;;;;;5106532;28;20031;-51
2023/12/12 21:56:24;;;;;;;41.05;17.25;;;4.50;1.00;;;;;;5104912;28;20174;-52
2023/12/12 21:58:53;;;;;;;44.90;17.23;;;4.50;1.00;;;;;;5106442;28;20084;-52
2023/12/12 22:01:19;;;;;;;36.42;15.90;;;4.40;1.00;;;;;;5106913;28;20019;-55
2023/12/12 22:03:45;;;;;;;37.27;17.10;;;4.60;1.00;;;;;;5107148;28;20035;-45
2023/12/12 22:06:10;;;;;;;43.65;17.90;;;4.60;1.00;;;;;;5106917;28;20111;-52
2023/12/12 22:08:40;;;;;;;52.75;22.60;;;4.50;1.00;;;;;;5107083;28;20027;-56
2023/12/12 22:11:18;;;;;;;55.13;22.27;;;4.40;1.00;;;;;;5099572;28;20063;-55
2023/12/12 22:13:45;;;;;;;53.28;23.55;;;4.30;99.90;;;;;;5086925;28;20032;-52
2023/12/12 22:16:23;;;;;;;58.80;25.08;;;4.20;1.00;;;;;;5087232;28;20016;-50
2023/12/12 22:18:49;;;;;;;72.90;31.63;;;4.10;1.00;;;;;;5086386;28;20066;-48
2023/12/12 22:21:15;;;;;;;90.75;32.90;;;4.10;99.90;;;;;;5085838;28;20078;-47
2023/12/12 22:23:41;;;;;;;50.38;23.42;;;4.10;99.90;;;;;;5086076;28;20520;-55
2023/12/12 22:26:07;;;;;;;56.90;23.73;;;4.10;11.10;;;;;;5086569;28;20024;-53
2023/12/12 22:28:32;;;;;;;43.85;19.50;;;4.20;1.00;;;;;;5087551;28;20024;-54
2023/12/12 22:31:00;;;;;;;44.08;19.25;;;4.20;1.00;;;;;;5106885;28;20051;-47
2023/12/12 22:33:25;;;;;;;47.70;19.58;;;4.40;1.00;;;;;;5092736;28;20437;-54
2023/12/12 22:35:51;;;;;;;54.22;21.25;;;4.40;99.90;;;;;;5086691;28;20032;-51
2023/12/12 22:38:17;;;;;;;48.53;20.52;;;4.40;99.90;;;;;;5086614;28;20521;-55
2023/12/12 22:40:42;;;;;;;40.92;19.90;;;4.40;99.90;;;;;;5085472;28;20024;-48
2023/12/12 22:43:08;;;;;;;46.55;22.45;;;4.50;99.90;;;;;;5086138;28;20035;-52
2023/12/12 22:45:33;;;;;;;50.10;21.27;;;4.60;99.90;;;;;;5086083;28;20035;-52
2023/12/12 22:47:59;;;;;;;47.72;21.65;;;4.70;99.90;;;;;;5085894;28;20024;-51
2023/12/12 22:50:25;;;;;;;64.57;25.70;;;4.70;22.00;;;;;;5086576;28;20083;-52
2023/12/12 22:52:50;;;;;;;74.47;29.00;;;4.70;1.00;;;;;;5085403;28;20361;-54
2023/12/12 22:55:17;;;;;;;63.28;24.60;;;4.70;1.00;;;;;;5085872;28;20058;-51
2023/12/12 22:57:42;;;;;;;71.18;29.00;;;4.70;1.00;;;;;;5085689;28;20028;-54
2023/12/12 23:00:24;;;;;;;67.15;27.90;;;4.70;1.00;;;;;;5085977;28;20039;-51
2023/12/12 23:02:50;;;;;;;80.80;31.88;;;4.70;1.00;;;;;;5085930;28;20038;-54
2023/12/12 23:05:16;;;;;;;53.00;22.27;;;4.70;99.90;;;;;;5085731;28;20419;-51
2023/12/12 23:07:41;;;;;;;63.08;26.30;;;4.70;99.90;;;;;;5086161;28;20028;-47
2023/12/12 23:10:07;;;;;;;44.65;22.80;;;4.70;1.00;;;;;;5085349;28;20135;-54
2023/12/12 23:12:33;;;;;;;42.17;18.92;;;4.70;99.90;;;;;;5085244;28;20063;-50
2023/12/12 23:14:59;;;;;;;37.10;16.98;;;4.80;99.90;;;;;;5085545;28;20032;-49
2023/12/12 23:17:24;;;;;;;35.92;15.75;;;4.80;99.90;;;;;;5085869;28;20063;-50
2023/12/12 23:19:50;;;;;;;39.00;15.60;;;4.80;99.90;;;;;;5085388;28;20028;-51
2023/12/12 23:22:16;;;;;;;42.72;16.85;;;5.00;99.90;;;;;;5085698;28;20476;-49
2023/12/12 23:24:43;;;;;;;44.03;17.20;;;5.10;99.90;;;;;;5085173;28;20111;-52
2023/12/12 23:27:09;;;;;;;57.58;23.90;;;5.10;49.30;;;;;;5085662;28;20090;-58
2023/12/12 23:29:34;;;;;;;71.85;31.40;;;5.10;99.90;;;;;;5099564;28;20040;-52
2023/12/12 23:32:00;;;;;;;94.60;37.05;;;5.10;99.90;;;;;;5107435;28;20023;-47
2023/12/12 23:34:26;;;;;;;78.70;34.03;;;5.10;99.90;;;;;;5109809;28;20473;-54
2023/12/12 23:36:52;;;;;;;75.30;34.45;;;4.90;99.20;;;;;;5109186;28;20038;-46
2023/12/12 23:39:18;;;;;;;86.28;36.08;;;5.00;99.90;;;;;;5109580;28;20031;-48
2023/12/12 23:41:45;;;;;;;70.82;32.10;;;5.00;99.90;;;;;;5074261;28;20611;-47
2023/12/12 23:44:20;;;;;;;66.70;29.90;;;4.90;99.90;;;;;;5091469;28;20206;-53
2023/12/12 23:46:46;;;;;;;61.92;29.35;;;4.90;99.90;;;;;;5106756;28;20042;-49
2023/12/12 23:49:15;;;;;;;71.10;30.83;;;4.80;99.90;;;;;;5109525;28;20666;-53
2023/12/12 23:51:41;;;;;;;61.08;28.52;;;4.80;1.00;;;;;;5109670;28;20128;-54
2023/12/12 23:54:07;;;;;;;74.25;30.83;;;4.80;1.00;;;;;;5109544;28;20103;-49
2023/12/12 23:56:33;;;;;;;66.05;32.13;;;4.80;1.00;;;;;;5108709;28;20114;-53
2023/12/12 23:58:59;;;;;;;75.70;32.53;;;4.70;1.00;;;;;;5109371;28;20436;-50
